createdAt,value
2022-12-13T00:02:00.223Z,7.73
2022-12-13T00:04:27.316Z,7.87
2022-12-13T00:06:54.340Z,7.13
2022-12-13T00:09:21.898Z,7.90
2022-12-13T00:11:50.214Z,7.27
2022-12-13T00:14:17.639Z,7.23
2022-12-13T00:16:49.344Z,6.50
2022-12-13T00:19:18.140Z,7.07
2022-12-13T00:21:45.500Z,7.23
2022-12-13T00:24:12.647Z,5.83
2022-12-13T00:26:39.901Z,6.40
2022-12-13T00:29:08.027Z,6.77
2022-12-13T00:31:59.543Z,6.53
2022-12-13T00:34:23.476Z,6.73
2022-12-13T00:36:50.745Z,6.63
2022-12-13T00:39:19.297Z,6.47
2022-12-13T00:41:47.083Z,6.50
2022-12-13T00:44:14.861Z,6.13
2022-12-13T00:46:42.557Z,6.23
2022-12-13T00:49:10.818Z,5.97
2022-12-13T00:51:37.817Z,5.83
2022-12-13T00:54:05.509Z,5.67
2022-12-13T00:56:33.962Z,5.77
2022-12-13T00:59:01.430Z,5.90
2022-12-13T01:01:32.674Z,6.40
2022-12-13T01:04:02.481Z,5.97
2022-12-13T01:06:41.566Z,5.50
2022-12-13T01:09:19.743Z,4.93
2022-12-13T01:11:47.424Z,6.17
2022-12-13T01:14:16.495Z,5.53
2022-12-13T01:16:43.671Z,6.43
2022-12-13T01:19:10.653Z,5.80
2022-12-13T01:21:37.815Z,5.70
2022-12-13T01:24:06.779Z,5.53
2022-12-13T01:26:34.456Z,5.43
2022-12-13T01:29:01.576Z,5.90
2022-12-13T01:31:28.699Z,6.13
2022-12-13T01:33:55.696Z,5.03
2022-12-13T01:36:27.705Z,5.57
2022-12-13T01:38:59.408Z,5.93
2022-12-13T01:41:28.874Z,5.70
2022-12-13T01:44:05.032Z,5.53
2022-12-13T01:46:35.188Z,5.53
2022-12-13T01:49:19.732Z,5.03
2022-12-13T01:52:02.979Z,5.67
2022-12-13T01:54:37.579Z,4.73
2022-12-13T01:57:09.169Z,5.00
2022-12-13T01:59:39.498Z,5.33
2022-12-13T02:02:09.982Z,5.47
2022-12-13T02:04:54.398Z,5.23
2022-12-13T02:07:28.204Z,5.80
2022-12-13T02:09:59.078Z,5.13
2022-12-13T02:12:33.972Z,5.23
2022-12-13T02:15:14.580Z,5.30
2022-12-13T02:18:19.585Z,5.90
2022-12-13T02:21:31.406Z,5.20
2022-12-13T02:24:25.285Z,5.80
2022-12-13T02:27:30.338Z,5.90
2022-12-13T02:30:26.954Z,5.73
2022-12-13T02:33:22.144Z,5.47
2022-12-13T02:35:52.951Z,6.30
2022-12-13T02:39:00.674Z,5.70
2022-12-13T02:41:38.082Z,5.90
2022-12-13T02:44:22.901Z,5.70
2022-12-13T02:47:07.014Z,6.70
2022-12-13T02:49:47.102Z,6.60
2022-12-13T02:52:22.241Z,6.57
2022-12-13T02:54:49.957Z,5.90
2022-12-13T02:57:40.601Z,5.30
2022-12-13T03:00:51.133Z,5.93
2022-12-13T03:03:38.443Z,6.10
2022-12-13T03:06:34.049Z,6.67
2022-12-13T03:09:25.540Z,5.73
2022-12-13T03:12:29.274Z,5.80
2022-12-13T03:15:18.786Z,6.00
2022-12-13T03:18:07.013Z,6.10
2022-12-13T03:20:34.102Z,5.83
2022-12-13T03:23:01.161Z,6.07
2022-12-13T03:25:32.975Z,6.43
2022-12-13T03:28:02.502Z,5.90
2022-12-13T03:30:34.402Z,6.27
2022-12-13T03:33:02.020Z,6.30
2022-12-13T03:35:34.224Z,6.23
2022-12-13T03:38:03.107Z,5.83
2022-12-13T03:40:31.788Z,5.67
2022-12-13T03:42:58.757Z,6.60
2022-12-13T03:45:25.847Z,6.63
2022-12-13T03:47:52.861Z,6.87
2022-12-13T03:50:26.708Z,7.10
2022-12-13T03:53:02.418Z,6.57
2022-12-13T03:55:29.964Z,6.30
2022-12-13T03:57:57.084Z,7.00
2022-12-13T04:00:24.229Z,7.10
2022-12-13T04:02:51.277Z,6.57
2022-12-13T04:05:18.560Z,6.90
2022-12-13T04:07:48.338Z,6.73
2022-12-13T04:10:26.103Z,7.10
2022-12-13T04:13:13.018Z,6.93
2022-12-13T04:15:40.604Z,7.43
2022-12-13T04:18:07.576Z,8.00
2022-12-13T04:20:34.542Z,7.80
2022-12-13T04:23:01.584Z,8.00
2022-12-13T04:25:38.716Z,7.50
2022-12-13T04:28:06.600Z,8.33
2022-12-13T04:30:34.765Z,7.47
2022-12-13T04:33:02.087Z,7.97
2022-12-13T04:35:29.203Z,7.77
2022-12-13T04:37:57.389Z,8.73
2022-12-13T04:40:24.494Z,8.13
2022-12-13T04:42:54.303Z,8.70
2022-12-13T04:45:22.591Z,8.10
2022-12-13T04:47:49.978Z,8.07
2022-12-13T04:50:17.360Z,9.07
2022-12-13T04:52:45.023Z,7.70
2022-12-13T04:55:12.286Z,8.10
2022-12-13T04:57:39.919Z,8.37
2022-12-13T05:00:11.112Z,7.50
2022-12-13T05:02:38.104Z,7.43
2022-12-13T05:05:05.671Z,7.67
2022-12-13T05:07:32.610Z,7.37
2022-12-13T05:09:59.585Z,7.47
2022-12-13T05:12:26.628Z,6.97
2022-12-13T05:14:54.156Z,6.97
2022-12-13T05:17:21.588Z,7.10
2022-12-13T05:19:48.705Z,7.27
2022-12-13T05:22:20.469Z,6.80
2022-12-13T05:24:48.457Z,6.70
2022-12-13T05:27:25.864Z,6.97
2022-12-13T05:30:02.923Z,7.77
2022-12-13T05:32:43.753Z,6.70
2022-12-13T05:35:23.034Z,7.10
2022-12-13T05:37:55.263Z,7.27
2022-12-13T05:40:28.508Z,6.17
2022-12-13T05:43:00.959Z,6.87
2022-12-13T05:45:32.752Z,6.43
2022-12-13T05:48:00.121Z,6.43
2022-12-13T05:50:27.163Z,7.20
2022-12-13T05:52:54.141Z,6.67
2022-12-13T05:55:21.211Z,6.57
2022-12-13T05:57:50.106Z,7.17
2022-12-13T06:00:30.425Z,6.77
2022-12-13T06:03:01.289Z,7.13
2022-12-13T06:05:30.317Z,6.77
2022-12-13T06:07:58.133Z,6.77
2022-12-13T06:10:35.166Z,7.40
2022-12-13T06:13:21.498Z,7.27
2022-12-13T06:16:01.525Z,7.37
2022-12-13T06:18:31.553Z,7.80
2022-12-13T06:21:01.764Z,7.30
2022-12-13T06:23:30.827Z,7.30
2022-12-13T06:25:58.189Z,7.93
2022-12-13T06:28:25.121Z,7.70
2022-12-13T06:30:52.520Z,6.90
2022-12-13T06:33:23.488Z,7.30
2022-12-13T06:35:52.727Z,7.07
2022-12-13T06:38:31.571Z,6.83
2022-12-13T06:41:14.197Z,6.90
2022-12-13T06:43:48.786Z,7.40
2022-12-13T06:46:16.160Z,6.13
2022-12-13T06:48:43.380Z,5.63
2022-12-13T06:51:10.821Z,6.37
2022-12-13T06:53:40.250Z,5.97
2022-12-13T06:56:10.755Z,5.50
2022-12-13T06:58:38.740Z,5.77
2022-12-13T07:01:24.681Z,6.33
2022-12-13T07:03:55.900Z,6.00
2022-12-13T07:06:25.854Z,5.83
2022-12-13T07:08:56.902Z,5.80
2022-12-13T07:11:27.495Z,5.80
2022-12-13T07:13:55.417Z,6.57
2022-12-13T07:16:23.962Z,5.97
2022-12-13T07:19:01.347Z,5.70
2022-12-13T07:21:30.606Z,5.43
2022-12-13T07:23:57.707Z,5.37
2022-12-13T07:26:25.380Z,5.17
2022-12-13T07:28:55.377Z,5.60
2022-12-13T07:31:24.579Z,6.07
2022-12-13T07:33:52.473Z,5.70
2022-12-13T07:36:23.299Z,6.53
2022-12-13T07:38:57.723Z,6.13
2022-12-13T07:41:26.778Z,6.13
2022-12-13T07:43:55.989Z,6.23
2022-12-13T07:46:32.636Z,6.60
2022-12-13T07:49:03.131Z,6.57
2022-12-13T07:51:30.377Z,6.87
2022-12-13T07:53:58.233Z,6.43
2022-12-13T07:56:25.190Z,6.47
2022-12-13T07:58:52.138Z,6.03
2022-12-13T08:01:19.225Z,6.67
2022-12-13T08:03:48.976Z,6.33
2022-12-13T08:06:15.953Z,6.53
2022-12-13T08:08:43.086Z,6.53
2022-12-13T08:11:13.268Z,6.97
2022-12-13T08:13:41.062Z,7.17
2022-12-13T08:16:27.429Z,7.57
2022-12-13T08:19:02.527Z,7.07
2022-12-13T08:21:56.865Z,6.87
2022-12-13T08:24:27.059Z,6.93
2022-12-13T08:26:55.149Z,6.23
2022-12-13T08:29:32.965Z,7.33
2022-12-13T08:32:07.297Z,6.90
2022-12-13T08:34:34.321Z,6.57
2022-12-13T08:37:03.556Z,7.27
2022-12-13T08:39:37.400Z,6.87
2022-12-13T08:42:16.705Z,7.43
2022-12-13T08:44:50.893Z,6.63
2022-12-13T08:47:22.953Z,7.80
2022-12-13T08:50:01.819Z,6.67
2022-12-13T08:52:40.244Z,6.63
2022-12-13T08:55:13.551Z,7.17
2022-12-13T08:57:42.431Z,6.60
2022-12-13T09:00:19.358Z,8.10
2022-12-13T09:02:46.371Z,6.67
2022-12-13T09:05:13.689Z,6.87
2022-12-13T09:08:02.892Z,6.73
2022-12-13T09:10:38.638Z,7.50
2022-12-13T09:13:11.884Z,7.27
2022-12-13T09:15:45.972Z,7.10
2022-12-13T09:18:15.157Z,6.37
2022-12-13T09:20:42.808Z,6.90
2022-12-13T09:23:14.027Z,7.53
2022-12-13T09:26:05.929Z,6.57
2022-12-13T09:28:35.359Z,6.63
2022-12-13T09:31:17.840Z,7.77
2022-12-13T09:33:46.002Z,6.70
2022-12-13T09:36:17.317Z,7.07
2022-12-13T09:38:45.381Z,7.10
2022-12-13T09:41:34.121Z,7.00
2022-12-13T09:44:32.583Z,7.33
2022-12-13T09:47:13.139Z,6.80
2022-12-13T09:49:52.023Z,7.10
2022-12-13T09:52:22.549Z,6.83
2022-12-13T09:54:53.979Z,7.17
2022-12-13T09:57:32.743Z,6.93
2022-12-13T10:00:07.251Z,7.00
2022-12-13T10:02:58.752Z,6.50
2022-12-13T10:05:39.644Z,7.23
2022-12-13T10:08:15.101Z,6.50
2022-12-13T10:10:43.922Z,6.97
2022-12-13T10:13:49.354Z,6.97
2022-12-13T10:16:37.427Z,7.00
2022-12-13T10:19:39.153Z,7.13
2022-12-13T10:22:13.491Z,7.60
2022-12-13T10:25:04.424Z,7.20
2022-12-13T10:27:48.940Z,7.10
2022-12-13T10:30:28.856Z,7.03
2022-12-13T10:33:02.734Z,6.60
2022-12-13T10:35:40.899Z,7.07
2022-12-13T10:38:07.801Z,6.80
2022-12-13T10:40:45.376Z,6.70
2022-12-13T10:43:23.662Z,6.97
2022-12-13T10:49:59.050Z,7.67
2022-12-13T10:52:43.081Z,7.37
2022-12-13T10:55:28.722Z,7.00
2022-12-13T10:58:03.523Z,7.93
2022-12-13T11:00:37.786Z,7.43
2022-12-13T11:03:05.942Z,7.33
2022-12-13T11:05:35.773Z,7.87
2022-12-13T11:08:27.959Z,7.90
2022-12-13T11:11:04.538Z,7.33
2022-12-13T11:13:51.155Z,7.27
2022-12-13T11:16:27.727Z,7.90
2022-12-13T11:18:59.484Z,7.70
2022-12-13T11:21:31.083Z,8.53
2022-12-13T11:24:05.922Z,8.07
2022-12-13T11:26:38.056Z,8.90
2022-12-13T11:29:35.245Z,8.33
2022-12-13T11:32:31.373Z,8.33
2022-12-13T11:35:38.581Z,8.13
2022-12-13T11:38:42.734Z,8.50
2022-12-13T11:41:42.364Z,7.57
2022-12-13T11:44:29.719Z,9.40
2022-12-13T11:47:00.955Z,8.47
2022-12-13T11:49:40.820Z,9.07
2022-12-13T11:52:16.498Z,7.93
2022-12-13T11:54:54.582Z,8.50
2022-12-13T11:57:27.409Z,8.57
2022-12-13T12:00:17.895Z,9.67
2022-12-13T12:03:35.026Z,9.30
2022-12-13T12:06:32.539Z,9.27
2022-12-13T12:09:07.456Z,8.93
2022-12-13T12:11:41.919Z,9.00
2022-12-13T12:14:56.318Z,8.33
2022-12-13T12:17:37.733Z,7.83
2022-12-13T12:20:25.245Z,8.17
2022-12-13T12:23:27.928Z,8.73
2022-12-13T12:26:15.347Z,8.23
2022-12-13T12:29:17.747Z,8.17
2022-12-13T12:32:28.638Z,8.90
2022-12-13T12:35:26.830Z,8.37
2022-12-13T12:38:22.963Z,9.67
2022-12-13T12:41:24.791Z,8.67
2022-12-13T12:44:16.728Z,9.17
2022-12-13T12:47:28.610Z,9.23
2022-12-13T12:50:24.287Z,8.73
2022-12-13T12:53:23.685Z,9.23
2022-12-13T12:56:36.219Z,9.37
2022-12-13T12:59:58.213Z,9.13
2022-12-13T13:03:06.814Z,9.43
2022-12-13T13:06:09.551Z,9.63
2022-12-13T13:08:59.207Z,8.77
2022-12-13T13:11:33.761Z,9.50
2022-12-13T13:14:36.702Z,9.00
2022-12-13T13:17:25.206Z,8.67
2022-12-13T13:20:17.568Z,9.77
2022-12-13T13:22:50.277Z,9.13
2022-12-13T13:25:35.210Z,9.20
2022-12-13T13:28:17.337Z,10.17
2022-12-13T13:31:05.992Z,9.77
2022-12-13T13:33:51.455Z,10.03
2022-12-13T13:36:41.655Z,9.67
2022-12-13T13:39:36.437Z,9.40
2022-12-13T13:42:18.189Z,10.13
2022-12-13T13:44:53.541Z,9.13
2022-12-13T13:47:20.437Z,9.73
2022-12-13T13:50:33.416Z,9.80
2022-12-13T13:53:31.191Z,9.47
2022-12-13T13:56:25.223Z,9.17
2022-12-13T13:59:38.348Z,9.37
2022-12-13T14:03:33.338Z,8.90
2022-12-13T14:06:36.416Z,9.53
2022-12-13T14:09:51.886Z,8.80
2022-12-13T14:13:13.393Z,9.93
2022-12-13T14:16:36.345Z,10.13
2022-12-13T14:19:18.103Z,9.53
2022-12-13T14:22:11.379Z,9.60
2022-12-13T14:25:02.922Z,9.30
2022-12-13T14:27:54.739Z,8.77
2022-12-13T14:30:27.856Z,9.57
2022-12-13T14:32:57.132Z,8.83
2022-12-13T14:35:33.637Z,9.23
2022-12-13T14:38:08.115Z,9.10
2022-12-13T14:40:47.328Z,9.60
2022-12-13T14:43:35.097Z,9.63
2022-12-13T14:46:06.241Z,9.67
2022-12-13T14:48:49.185Z,10.80
2022-12-13T14:51:38.430Z,10.10
2022-12-13T14:54:07.913Z,9.93
2022-12-13T14:56:35.003Z,10.43
2022-12-13T14:59:11.994Z,10.83
2022-12-13T15:01:40.477Z,11.17
2022-12-13T15:04:39.707Z,10.33
2022-12-13T15:07:06.926Z,9.53
2022-12-13T15:09:44.401Z,11.23
2022-12-13T15:12:25.170Z,11.60
2022-12-13T15:15:23.339Z,12.33
2022-12-13T15:18:04.361Z,11.03
2022-12-13T15:20:33.618Z,12.40
2022-12-13T15:23:12.092Z,11.77
2022-12-13T15:25:39.542Z,12.63
2022-12-13T15:28:08.056Z,11.77
2022-12-13T15:30:36.541Z,12.03
2022-12-13T15:33:34.178Z,11.93
2022-12-13T15:36:03.672Z,12.67
2022-12-13T15:38:30.862Z,12.80
2022-12-13T15:40:59.297Z,12.17
2022-12-13T15:43:37.322Z,12.20
2022-12-13T15:46:07.968Z,11.27
2022-12-13T15:48:40.300Z,12.53
2022-12-13T15:51:29.634Z,11.03
2022-12-13T15:54:11.397Z,12.60
2022-12-13T15:57:14.303Z,11.70
2022-12-13T15:59:44.167Z,12.90
2022-12-13T16:02:24.260Z,12.93
2022-12-13T16:04:51.910Z,13.53
2022-12-13T16:07:37.709Z,13.27
2022-12-13T16:10:06.843Z,13.07
2022-12-13T16:12:47.624Z,14.90
2022-12-13T16:15:28.564Z,13.37
2022-12-13T16:18:26.729Z,12.63
2022-12-13T16:20:55.186Z,13.73
2022-12-13T16:23:27.203Z,13.50
2022-12-13T16:25:55.088Z,13.97
2022-12-13T16:28:25.964Z,14.20
2022-12-13T16:30:53.327Z,12.87
2022-12-13T16:33:26.300Z,13.93
2022-12-13T16:35:56.086Z,14.30
2022-12-13T16:38:26.858Z,12.80
2022-12-13T16:40:59.377Z,14.47
2022-12-13T16:43:33.907Z,14.20
2022-12-13T16:47:16.198Z,13.90
2022-12-13T16:48:51.781Z,13.17
2022-12-13T16:51:19.354Z,12.77
2022-12-13T16:53:46.897Z,13.37
2022-12-13T16:56:16.504Z,13.60
2022-12-13T16:58:49.666Z,14.03
2022-12-13T17:01:20.346Z,15.37
2022-12-13T17:03:48.013Z,14.33
2022-12-13T17:06:18.859Z,13.97
2022-12-13T17:08:45.820Z,14.93
2022-12-13T17:11:17.717Z,13.97
2022-12-13T17:13:47.567Z,14.00
2022-12-13T17:16:14.905Z,14.57
2022-12-13T17:18:42.224Z,13.80
2022-12-13T17:21:11.047Z,13.63
2022-12-13T17:23:38.183Z,14.97
2022-12-13T17:26:10.847Z,14.23
2022-12-13T17:28:38.113Z,14.73
2022-12-13T17:31:13.589Z,14.27
2022-12-13T17:33:41.886Z,15.50
2022-12-13T17:36:11.520Z,15.27
2022-12-13T17:38:45.535Z,15.10
2022-12-13T17:41:16.306Z,15.60
2022-12-13T17:43:44.297Z,15.27
2022-12-13T17:46:16.433Z,15.00
2022-12-13T17:48:45.756Z,15.70
2022-12-13T17:51:14.274Z,16.07
2022-12-13T17:53:43.785Z,16.33
2022-12-13T17:56:15.219Z,15.67
2022-12-13T17:58:42.863Z,16.20
2022-12-13T18:01:22.844Z,15.47
2022-12-13T18:03:54.085Z,15.07
2022-12-13T18:06:21.649Z,16.60
2022-12-13T18:08:48.732Z,14.83
2022-12-13T18:11:34.626Z,16.70
2022-12-13T18:14:07.469Z,17.70
2022-12-13T18:16:38.402Z,18.03
2022-12-13T18:19:10.626Z,16.83
2022-12-13T18:21:37.761Z,19.13
2022-12-13T18:24:06.660Z,17.60
2022-12-13T18:26:34.402Z,17.67
2022-12-13T18:29:02.331Z,18.53
2022-12-13T18:31:29.386Z,17.67
2022-12-13T18:33:56.602Z,17.50
2022-12-13T18:36:25.383Z,18.17
2022-12-13T18:38:52.925Z,17.83
2022-12-13T18:41:24.052Z,17.57
2022-12-13T18:44:03.750Z,18.20
2022-12-13T18:46:35.227Z,17.17
2022-12-13T18:49:03.175Z,18.63
2022-12-13T18:51:30.408Z,19.23
2022-12-13T18:53:57.428Z,18.53
2022-12-13T18:56:25.898Z,19.07
2022-12-13T18:58:53.529Z,19.23
2022-12-13T19:01:22.924Z,18.33
2022-12-13T19:03:50.993Z,18.30
2022-12-13T19:06:22.120Z,18.93
2022-12-13T19:08:51.799Z,19.70
2022-12-13T19:11:20.035Z,20.03
2022-12-13T19:13:47.766Z,18.27
2022-12-13T19:16:18.909Z,19.17
2022-12-13T19:18:46.702Z,20.47
2022-12-13T19:21:17.550Z,20.60
2022-12-13T19:23:48.354Z,18.03
2022-12-13T19:26:19.144Z,20.23
2022-12-13T19:28:46.738Z,20.10
2022-12-13T19:31:15.777Z,20.37
2022-12-13T19:33:43.702Z,20.37
2022-12-13T19:36:11.534Z,19.60
2022-12-13T19:38:39.966Z,21.03
2022-12-13T19:41:14.466Z,21.27
2022-12-13T19:43:43.824Z,21.33
2022-12-13T19:46:12.515Z,22.47
2022-12-13T19:48:39.499Z,21.60
2022-12-13T19:51:09.868Z,20.67
2022-12-13T19:53:40.798Z,20.97
2022-12-13T19:56:14.025Z,21.63
2022-12-13T19:58:41.102Z,21.60
2022-12-13T20:01:08.648Z,21.67
2022-12-13T20:03:38.516Z,20.23
2022-12-13T20:06:08.932Z,20.93
2022-12-13T20:08:36.037Z,21.73
2022-12-13T20:11:17.099Z,20.80
2022-12-13T20:13:44.076Z,20.83
2022-12-13T20:16:19.917Z,20.40
2022-12-13T20:18:48.083Z,21.60
2022-12-13T20:21:15.812Z,19.90
2022-12-13T20:23:48.967Z,20.40
2022-12-13T20:26:25.701Z,20.63
2022-12-13T20:28:52.920Z,20.70
2022-12-13T20:31:23.885Z,20.27
2022-12-13T20:33:58.708Z,21.80
2022-12-13T20:36:28.719Z,21.97
2022-12-13T20:38:59.580Z,21.73
2022-12-13T20:41:29.991Z,21.27
2022-12-13T20:43:59.192Z,20.87
2022-12-13T20:46:27.662Z,22.13
2022-12-13T20:48:56.259Z,22.40
2022-12-13T20:51:26.538Z,23.27
2022-12-13T20:53:54.859Z,23.37
2022-12-13T20:56:28.070Z,22.67
2022-12-13T20:58:55.842Z,24.27
2022-12-13T21:01:30.636Z,25.27
2022-12-13T21:04:00.466Z,25.00
2022-12-13T21:06:32.925Z,24.40
2022-12-13T21:09:02.806Z,24.37
2022-12-13T21:11:35.277Z,24.83
2022-12-13T21:14:21.297Z,24.70
2022-12-13T21:17:09.709Z,24.53
2022-12-13T21:19:40.235Z,25.67
2022-12-13T21:22:07.903Z,26.70
2022-12-13T21:24:34.835Z,26.10
2022-12-13T21:27:01.916Z,25.17
2022-12-13T21:29:28.973Z,25.10
2022-12-13T21:31:56.210Z,25.97
2022-12-13T21:34:23.521Z,25.70
2022-12-13T21:36:52.762Z,26.93
2022-12-13T21:39:31.013Z,24.70
2022-12-13T21:41:58.542Z,25.07
2022-12-13T21:44:25.612Z,26.00
2022-12-13T21:47:11.903Z,26.87
2022-12-13T21:49:39.679Z,25.97
2022-12-13T21:52:06.603Z,26.53
2022-12-13T21:54:33.575Z,24.97
2022-12-13T21:57:19.175Z,25.47
2022-12-13T21:59:46.309Z,26.63
2022-12-13T22:02:17.758Z,28.00
2022-12-13T22:04:51.667Z,26.77
2022-12-13T22:07:30.006Z,26.87
2022-12-13T22:09:58.752Z,28.10
2022-12-13T22:12:38.832Z,27.50
2022-12-13T22:15:12.413Z,28.00
2022-12-13T22:17:40.603Z,28.17
2022-12-13T22:20:13.794Z,28.07
2022-12-13T22:22:42.578Z,27.23
2022-12-13T22:25:10.444Z,27.50
2022-12-13T22:27:37.620Z,26.23
2022-12-13T22:30:05.538Z,27.47
2022-12-13T22:32:34.041Z,29.17
2022-12-13T22:35:01.065Z,27.03
2022-12-13T22:37:28.042Z,26.93
2022-12-13T22:39:55.074Z,27.77
2022-12-13T22:42:22.468Z,28.53
2022-12-13T22:44:49.505Z,27.60
2022-12-13T22:47:16.838Z,26.50
2022-12-13T22:49:43.848Z,25.47
2022-12-13T22:52:10.867Z,26.97
2022-12-13T22:54:37.845Z,27.90
2022-12-13T22:57:04.898Z,27.13
2022-12-13T22:59:31.924Z,26.63
2022-12-13T23:02:02.593Z,26.63
2022-12-13T23:04:31.874Z,27.10
2022-12-13T23:06:58.976Z,29.20
2022-12-13T23:09:25.978Z,26.60
2022-12-13T23:12:11.791Z,26.13
2022-12-13T23:14:38.788Z,28.70
2022-12-13T23:17:06.177Z,26.30
2022-12-13T23:19:52.908Z,25.10
2022-12-13T23:22:22.930Z,28.70
2022-12-13T23:24:51.083Z,25.73
2022-12-13T23:27:19.959Z,25.73
2022-12-13T23:29:46.967Z,27.67
2022-12-13T23:32:14.212Z,27.53
2022-12-13T23:34:41.292Z,26.50
2022-12-13T23:37:08.291Z,28.03
2022-12-13T23:39:35.222Z,27.57
2022-12-13T23:42:02.254Z,28.00
2022-12-13T23:44:29.199Z,26.50
2022-12-13T23:46:56.131Z,27.87
2022-12-13T23:49:23.222Z,27.93
2022-12-13T23:51:50.159Z,27.17
2022-12-13T23:54:19.529Z,28.53
2022-12-13T23:56:47.578Z,29.13
2022-12-13T23:59:14.565Z,27.20
